sensor_id;sensor_type;location;lat;lon;timestamp;P1;durP1;ratioP1;P2;durP2;ratioP2
47824;SDS011;33589;48.242;14.676;2023-06-14T00:00:32;9.52;;;5.07;;
47824;SDS011;33589;48.242;14.676;2023-06-14T00:02:59;7.45;;;5.32;;
47824;SDS011;33589;48.242;14.676;2023-06-14T00:05:25;6.05;;;5.05;;
47824;SDS011;33589;48.242;14.676;2023-06-14T00:07:51;5.78;;;5.28;;
47824;SDS011;33589;48.242;14.676;2023-06-14T00:10:18;7.47;;;5.18;;
47824;SDS011;33589;48.242;14.676;2023-06-14T00:12:44;5.40;;;4.72;;
47824;SDS011;33589;48.242;14.676;2023-06-14T00:15:10;8.07;;;5.00;;
47824;SDS011;33589;48.242;14.676;2023-06-14T00:17:36;5.53;;;4.97;;
47824;SDS011;33589;48.242;14.676;2023-06-14T00:20:04;5.35;;;4.85;;
47824;SDS011;33589;48.242;14.676;2023-06-14T00:22:33;6.38;;;5.18;;
47824;SDS011;33589;48.242;14.676;2023-06-14T00:24:59;8.07;;;5.47;;
47824;SDS011;33589;48.242;14.676;2023-06-14T00:27:25;6.75;;;5.60;;
47824;SDS011;33589;48.242;14.676;2023-06-14T00:29:51;9.52;;;4.95;;
47824;SDS011;33589;48.242;14.676;2023-06-14T00:32:17;5.50;;;5.00;;
47824;SDS011;33589;48.242;14.676;2023-06-14T00:34:43;7.50;;;5.25;;
47824;SDS011;33589;48.242;14.676;2023-06-14T00:37:09;8.48;;;5.43;;
47824;SDS011;33589;48.242;14.676;2023-06-14T00:39:35;8.25;;;5.28;;
47824;SDS011;33589;48.242;14.676;2023-06-14T00:42:00;8.32;;;5.20;;
47824;SDS011;33589;48.242;14.676;2023-06-14T00:44:26;8.90;;;5.30;;
47824;SDS011;33589;48.242;14.676;2023-06-14T00:46:52;5.75;;;4.90;;
47824;SDS011;33589;48.242;14.676;2023-06-14T00:49:18;6.93;;;4.93;;
47824;SDS011;33589;48.242;14.676;2023-06-14T00:51:44;7.40;;;4.63;;
47824;SDS011;33589;48.242;14.676;2023-06-14T00:54:11;5.68;;;4.95;;
47824;SDS011;33589;48.242;14.676;2023-06-14T00:56:37;5.13;;;4.53;;
47824;SDS011;33589;48.242;14.676;2023-06-14T00:59:02;6.60;;;4.78;;
47824;SDS011;33589;48.242;14.676;2023-06-14T01:01:30;6.00;;;4.78;;
47824;SDS011;33589;48.242;14.676;2023-06-14T01:03:59;5.22;;;4.38;;
47824;SDS011;33589;48.242;14.676;2023-06-14T01:06:33;8.20;;;5.05;;
47824;SDS011;33589;48.242;14.676;2023-06-14T01:09:33;4.82;;;4.43;;
47824;SDS011;33589;48.242;14.676;2023-06-14T01:14:45;6.70;;;4.60;;
47824;SDS011;33589;48.242;14.676;2023-06-14T01:17:13;6.10;;;4.75;;
47824;SDS011;33589;48.242;14.676;2023-06-14T01:19:42;7.35;;;4.93;;
47824;SDS011;33589;48.242;14.676;2023-06-14T01:22:09;8.73;;;4.72;;
47824;SDS011;33589;48.242;14.676;2023-06-14T01:24:35;6.85;;;4.47;;
47824;SDS011;33589;48.242;14.676;2023-06-14T01:27:02;7.47;;;4.38;;
47824;SDS011;33589;48.242;14.676;2023-06-14T01:29:28;5.97;;;4.30;;
47824;SDS011;33589;48.242;14.676;2023-06-14T01:31:58;7.38;;;5.03;;
47824;SDS011;33589;48.242;14.676;2023-06-14T01:34:29;5.72;;;4.55;;
47824;SDS011;33589;48.242;14.676;2023-06-14T01:36:55;5.57;;;4.65;;
47824;SDS011;33589;48.242;14.676;2023-06-14T01:39:21;5.88;;;4.53;;
47824;SDS011;33589;48.242;14.676;2023-06-14T01:41:48;8.77;;;4.40;;
47824;SDS011;33589;48.242;14.676;2023-06-14T01:44:16;5.82;;;4.25;;
47824;SDS011;33589;48.242;14.676;2023-06-14T01:46:44;5.32;;;4.03;;
47824;SDS011;33589;48.242;14.676;2023-06-14T01:49:10;8.25;;;4.65;;
47824;SDS011;33589;48.242;14.676;2023-06-14T01:51:36;6.45;;;4.30;;
47824;SDS011;33589;48.242;14.676;2023-06-14T01:54:02;7.90;;;4.30;;
47824;SDS011;33589;48.242;14.676;2023-06-14T01:56:28;4.38;;;3.97;;
47824;SDS011;33589;48.242;14.676;2023-06-14T01:58:53;8.05;;;3.70;;
47824;SDS011;33589;48.242;14.676;2023-06-14T02:01:19;5.60;;;3.80;;
47824;SDS011;33589;48.242;14.676;2023-06-14T02:03:46;6.95;;;3.92;;
47824;SDS011;33589;48.242;14.676;2023-06-14T02:06:15;7.22;;;3.70;;
47824;SDS011;33589;48.242;14.676;2023-06-14T02:08:43;3.88;;;3.25;;
47824;SDS011;33589;48.242;14.676;2023-06-14T02:11:09;4.45;;;3.53;;
47824;SDS011;33589;48.242;14.676;2023-06-14T02:13:35;6.90;;;3.53;;
47824;SDS011;33589;48.242;14.676;2023-06-14T02:16:00;4.07;;;3.65;;
47824;SDS011;33589;48.242;14.676;2023-06-14T02:18:28;5.07;;;3.55;;
47824;SDS011;33589;48.242;14.676;2023-06-14T02:20:55;5.55;;;4.13;;
47824;SDS011;33589;48.242;14.676;2023-06-14T02:23:20;6.30;;;4.05;;
47824;SDS011;33589;48.242;14.676;2023-06-14T02:25:46;5.20;;;3.72;;
47824;SDS011;33589;48.242;14.676;2023-06-14T02:28:12;5.43;;;3.60;;
47824;SDS011;33589;48.242;14.676;2023-06-14T02:30:38;10.82;;;4.18;;
47824;SDS011;33589;48.242;14.676;2023-06-14T02:33:04;9.23;;;3.60;;
47824;SDS011;33589;48.242;14.676;2023-06-14T02:35:31;5.32;;;3.53;;
47824;SDS011;33589;48.242;14.676;2023-06-14T02:37:57;5.20;;;4.00;;
47824;SDS011;33589;48.242;14.676;2023-06-14T02:40:22;6.82;;;3.70;;
47824;SDS011;33589;48.242;14.676;2023-06-14T02:42:48;3.78;;;3.40;;
47824;SDS011;33589;48.242;14.676;2023-06-14T02:45:15;4.03;;;3.40;;
47824;SDS011;33589;48.242;14.676;2023-06-14T02:47:42;4.45;;;3.63;;
47824;SDS011;33589;48.242;14.676;2023-06-14T02:50:07;3.78;;;3.33;;
47824;SDS011;33589;48.242;14.676;2023-06-14T02:52:33;7.78;;;3.75;;
47824;SDS011;33589;48.242;14.676;2023-06-14T02:54:59;7.13;;;3.92;;
47824;SDS011;33589;48.242;14.676;2023-06-14T02:57:25;7.68;;;3.58;;
47824;SDS011;33589;48.242;14.676;2023-06-14T02:59:51;5.32;;;3.83;;
47824;SDS011;33589;48.242;14.676;2023-06-14T03:02:17;6.90;;;3.53;;
47824;SDS011;33589;48.242;14.676;2023-06-14T03:04:43;6.55;;;3.80;;
47824;SDS011;33589;48.242;14.676;2023-06-14T03:07:14;6.50;;;3.65;;
47824;SDS011;33589;48.242;14.676;2023-06-14T03:09:45;4.87;;;3.90;;
47824;SDS011;33589;48.242;14.676;2023-06-14T03:12:12;5.18;;;3.53;;
47824;SDS011;33589;48.242;14.676;2023-06-14T03:14:38;6.65;;;3.40;;
47824;SDS011;33589;48.242;14.676;2023-06-14T03:17:05;6.85;;;3.40;;
47824;SDS011;33589;48.242;14.676;2023-06-14T03:19:34;6.07;;;3.50;;
47824;SDS011;33589;48.242;14.676;2023-06-14T03:21:59;4.88;;;3.70;;
47824;SDS011;33589;48.242;14.676;2023-06-14T03:24:27;4.53;;;3.30;;
47824;SDS011;33589;48.242;14.676;2023-06-14T03:26:54;5.95;;;3.25;;
47824;SDS011;33589;48.242;14.676;2023-06-14T03:29:22;7.22;;;3.50;;
47824;SDS011;33589;48.242;14.676;2023-06-14T03:31:58;11.10;;;3.50;;
47824;SDS011;33589;48.242;14.676;2023-06-14T03:34:27;5.13;;;3.72;;
47824;SDS011;33589;48.242;14.676;2023-06-14T03:36:53;5.97;;;3.28;;
47824;SDS011;33589;48.242;14.676;2023-06-14T03:39:19;10.27;;;3.45;;
47824;SDS011;33589;48.242;14.676;2023-06-14T03:41:45;6.57;;;3.17;;
47824;SDS011;33589;48.242;14.676;2023-06-14T03:44:13;5.53;;;3.38;;
47824;SDS011;33589;48.242;14.676;2023-06-14T03:46:40;5.88;;;3.60;;
47824;SDS011;33589;48.242;14.676;2023-06-14T03:49:06;7.50;;;3.80;;
47824;SDS011;33589;48.242;14.676;2023-06-14T03:51:32;4.90;;;3.27;;
47824;SDS011;33589;48.242;14.676;2023-06-14T03:54:00;3.97;;;3.20;;
47824;SDS011;33589;48.242;14.676;2023-06-14T03:56:26;4.67;;;3.40;;
47824;SDS011;33589;48.242;14.676;2023-06-14T03:58:52;4.33;;;3.23;;
47824;SDS011;33589;48.242;14.676;2023-06-14T04:01:21;4.77;;;3.50;;
47824;SDS011;33589;48.242;14.676;2023-06-14T04:03:57;4.83;;;3.50;;
47824;SDS011;33589;48.242;14.676;2023-06-14T04:06:24;7.53;;;3.43;;
47824;SDS011;33589;48.242;14.676;2023-06-14T04:08:58;8.32;;;3.05;;
47824;SDS011;33589;48.242;14.676;2023-06-14T04:11:28;6.20;;;3.20;;
47824;SDS011;33589;48.242;14.676;2023-06-14T04:13:54;6.00;;;3.23;;
47824;SDS011;33589;48.242;14.676;2023-06-14T04:16:22;5.05;;;3.65;;
47824;SDS011;33589;48.242;14.676;2023-06-14T04:18:48;7.33;;;2.97;;
47824;SDS011;33589;48.242;14.676;2023-06-14T04:21:16;5.47;;;3.47;;
47824;SDS011;33589;48.242;14.676;2023-06-14T04:23:42;7.13;;;4.03;;
47824;SDS011;33589;48.242;14.676;2023-06-14T04:26:09;4.32;;;3.25;;
47824;SDS011;33589;48.242;14.676;2023-06-14T04:28:35;4.83;;;3.30;;
47824;SDS011;33589;48.242;14.676;2023-06-14T04:31:08;7.30;;;3.67;;
47824;SDS011;33589;48.242;14.676;2023-06-14T04:33:35;6.80;;;3.43;;
47824;SDS011;33589;48.242;14.676;2023-06-14T04:36:12;4.03;;;3.57;;
47824;SDS011;33589;48.242;14.676;2023-06-14T04:38:38;5.72;;;3.70;;
47824;SDS011;33589;48.242;14.676;2023-06-14T04:41:04;7.15;;;3.88;;
47824;SDS011;33589;48.242;14.676;2023-06-14T04:43:31;5.00;;;3.20;;
47824;SDS011;33589;48.242;14.676;2023-06-14T04:46:06;9.02;;;3.72;;
47824;SDS011;33589;48.242;14.676;2023-06-14T04:48:37;3.80;;;3.40;;
47824;SDS011;33589;48.242;14.676;2023-06-14T04:51:06;5.25;;;3.13;;
47824;SDS011;33589;48.242;14.676;2023-06-14T04:53:32;5.55;;;3.22;;
47824;SDS011;33589;48.242;14.676;2023-06-14T04:55:58;5.88;;;3.22;;
47824;SDS011;33589;48.242;14.676;2023-06-14T04:58:26;5.05;;;3.35;;
47824;SDS011;33589;48.242;14.676;2023-06-14T05:00:53;8.18;;;3.97;;
47824;SDS011;33589;48.242;14.676;2023-06-14T05:03:21;4.43;;;3.35;;
47824;SDS011;33589;48.242;14.676;2023-06-14T05:05:47;14.38;;;3.55;;
47824;SDS011;33589;48.242;14.676;2023-06-14T05:08:13;7.03;;;3.35;;
47824;SDS011;33589;48.242;14.676;2023-06-14T05:10:38;6.70;;;3.47;;
47824;SDS011;33589;48.242;14.676;2023-06-14T05:13:04;5.00;;;3.42;;
47824;SDS011;33589;48.242;14.676;2023-06-14T05:15:30;8.45;;;3.50;;
47824;SDS011;33589;48.242;14.676;2023-06-14T05:17:56;7.60;;;3.50;;
47824;SDS011;33589;48.242;14.676;2023-06-14T05:20:22;5.13;;;3.40;;
47824;SDS011;33589;48.242;14.676;2023-06-14T05:22:54;7.20;;;3.60;;
47824;SDS011;33589;48.242;14.676;2023-06-14T05:25:21;5.35;;;3.30;;
47824;SDS011;33589;48.242;14.676;2023-06-14T05:27:48;7.15;;;3.55;;
47824;SDS011;33589;48.242;14.676;2023-06-14T05:30:14;4.95;;;3.63;;
47824;SDS011;33589;48.242;14.676;2023-06-14T05:32:40;7.32;;;3.63;;
47824;SDS011;33589;48.242;14.676;2023-06-14T05:35:06;7.72;;;3.65;;
47824;SDS011;33589;48.242;14.676;2023-06-14T05:37:33;6.22;;;3.70;;
47824;SDS011;33589;48.242;14.676;2023-06-14T05:39:58;6.28;;;3.60;;
47824;SDS011;33589;48.242;14.676;2023-06-14T05:42:24;7.32;;;3.72;;
47824;SDS011;33589;48.242;14.676;2023-06-14T05:44:50;7.25;;;3.78;;
47824;SDS011;33589;48.242;14.676;2023-06-14T05:47:15;7.88;;;3.85;;
47824;SDS011;33589;48.242;14.676;2023-06-14T05:49:41;6.38;;;3.50;;
47824;SDS011;33589;48.242;14.676;2023-06-14T05:52:07;5.30;;;3.75;;
47824;SDS011;33589;48.242;14.676;2023-06-14T05:54:33;6.00;;;3.42;;
47824;SDS011;33589;48.242;14.676;2023-06-14T05:56:59;9.50;;;3.75;;
47824;SDS011;33589;48.242;14.676;2023-06-14T05:59:26;5.55;;;3.75;;
47824;SDS011;33589;48.242;14.676;2023-06-14T06:01:52;7.57;;;3.70;;
47824;SDS011;33589;48.242;14.676;2023-06-14T06:04:18;5.57;;;3.60;;
47824;SDS011;33589;48.242;14.676;2023-06-14T06:06:44;6.75;;;3.50;;
47824;SDS011;33589;48.242;14.676;2023-06-14T06:09:11;10.13;;;3.58;;
47824;SDS011;33589;48.242;14.676;2023-06-14T06:11:39;8.50;;;3.63;;
47824;SDS011;33589;48.242;14.676;2023-06-14T06:14:05;6.88;;;3.70;;
47824;SDS011;33589;48.242;14.676;2023-06-14T06:16:30;4.72;;;3.90;;
47824;SDS011;33589;48.242;14.676;2023-06-14T06:18:56;6.65;;;3.70;;
47824;SDS011;33589;48.242;14.676;2023-06-14T06:21:22;6.95;;;3.33;;
47824;SDS011;33589;48.242;14.676;2023-06-14T06:23:47;4.82;;;3.85;;
47824;SDS011;33589;48.242;14.676;2023-06-14T06:26:13;7.68;;;3.38;;
47824;SDS011;33589;48.242;14.676;2023-06-14T06:28:38;10.27;;;3.58;;
47824;SDS011;33589;48.242;14.676;2023-06-14T06:31:04;8.63;;;3.55;;
47824;SDS011;33589;48.242;14.676;2023-06-14T06:33:30;6.88;;;3.40;;
47824;SDS011;33589;48.242;14.676;2023-06-14T06:35:55;5.30;;;3.00;;
47824;SDS011;33589;48.242;14.676;2023-06-14T06:38:21;8.45;;;3.80;;
47824;SDS011;33589;48.242;14.676;2023-06-14T06:40:47;7.28;;;3.58;;
47824;SDS011;33589;48.242;14.676;2023-06-14T06:43:12;3.75;;;3.30;;
47824;SDS011;33589;48.242;14.676;2023-06-14T06:45:43;4.65;;;3.40;;
47824;SDS011;33589;48.242;14.676;2023-06-14T06:48:09;3.55;;;3.08;;
47824;SDS011;33589;48.242;14.676;2023-06-14T06:50:35;4.45;;;3.08;;
47824;SDS011;33589;48.242;14.676;2023-06-14T06:53:01;6.80;;;3.05;;
47824;SDS011;33589;48.242;14.676;2023-06-14T06:55:27;5.75;;;3.10;;
47824;SDS011;33589;48.242;14.676;2023-06-14T06:57:53;3.28;;;2.90;;
47824;SDS011;33589;48.242;14.676;2023-06-14T07:00:19;6.03;;;3.28;;
47824;SDS011;33589;48.242;14.676;2023-06-14T07:02:45;5.28;;;2.92;;
47824;SDS011;33589;48.242;14.676;2023-06-14T07:05:11;5.80;;;3.55;;
47824;SDS011;33589;48.242;14.676;2023-06-14T07:07:37;5.40;;;3.00;;
47824;SDS011;33589;48.242;14.676;2023-06-14T07:10:03;6.72;;;3.17;;
47824;SDS011;33589;48.242;14.676;2023-06-14T07:12:33;5.82;;;3.10;;
47824;SDS011;33589;48.242;14.676;2023-06-14T07:15:01;5.57;;;3.40;;
47824;SDS011;33589;48.242;14.676;2023-06-14T07:17:28;7.32;;;3.05;;
47824;SDS011;33589;48.242;14.676;2023-06-14T07:19:53;3.85;;;2.83;;
47824;SDS011;33589;48.242;14.676;2023-06-14T07:22:19;9.40;;;3.03;;
47824;SDS011;33589;48.242;14.676;2023-06-14T07:24:45;4.40;;;3.17;;
47824;SDS011;33589;48.242;14.676;2023-06-14T07:27:11;3.72;;;2.90;;
47824;SDS011;33589;48.242;14.676;2023-06-14T07:29:38;4.25;;;3.20;;
47824;SDS011;33589;48.242;14.676;2023-06-14T07:32:04;3.67;;;3.10;;
47824;SDS011;33589;48.242;14.676;2023-06-14T07:34:30;5.05;;;3.08;;
47824;SDS011;33589;48.242;14.676;2023-06-14T07:36:56;6.78;;;3.20;;
47824;SDS011;33589;48.242;14.676;2023-06-14T07:39:21;7.72;;;3.58;;
47824;SDS011;33589;48.242;14.676;2023-06-14T07:41:47;5.63;;;3.28;;
47824;SDS011;33589;48.242;14.676;2023-06-14T07:44:12;4.75;;;3.03;;
47824;SDS011;33589;48.242;14.676;2023-06-14T07:46:38;10.65;;;3.72;;
47824;SDS011;33589;48.242;14.676;2023-06-14T07:49:04;6.72;;;3.45;;
47824;SDS011;33589;48.242;14.676;2023-06-14T07:51:30;6.90;;;3.83;;
47824;SDS011;33589;48.242;14.676;2023-06-14T07:53:55;6.30;;;3.08;;
47824;SDS011;33589;48.242;14.676;2023-06-14T07:56:21;3.40;;;3.10;;
47824;SDS011;33589;48.242;14.676;2023-06-14T07:58:48;4.00;;;2.95;;
47824;SDS011;33589;48.242;14.676;2023-06-14T08:01:14;8.63;;;3.20;;
47824;SDS011;33589;48.242;14.676;2023-06-14T08:03:40;2.90;;;2.70;;
47824;SDS011;33589;48.242;14.676;2023-06-14T08:06:06;5.70;;;3.00;;
47824;SDS011;33589;48.242;14.676;2023-06-14T08:08:32;3.70;;;2.95;;
47824;SDS011;33589;48.242;14.676;2023-06-14T08:10:58;8.02;;;3.40;;
47824;SDS011;33589;48.242;14.676;2023-06-14T08:13:23;5.53;;;3.50;;
47824;SDS011;33589;48.242;14.676;2023-06-14T08:15:49;9.70;;;3.38;;
47824;SDS011;33589;48.242;14.676;2023-06-14T08:18:15;4.85;;;3.05;;
47824;SDS011;33589;48.242;14.676;2023-06-14T08:20:40;5.43;;;2.97;;
47824;SDS011;33589;48.242;14.676;2023-06-14T08:23:06;7.53;;;2.92;;
47824;SDS011;33589;48.242;14.676;2023-06-14T08:25:34;8.07;;;3.25;;
47824;SDS011;33589;48.242;14.676;2023-06-14T08:27:59;4.55;;;3.30;;
47824;SDS011;33589;48.242;14.676;2023-06-14T08:30:26;3.70;;;3.17;;
47824;SDS011;33589;48.242;14.676;2023-06-14T08:32:51;8.05;;;3.63;;
47824;SDS011;33589;48.242;14.676;2023-06-14T08:35:20;5.32;;;3.05;;
47824;SDS011;33589;48.242;14.676;2023-06-14T08:37:46;8.00;;;3.00;;
47824;SDS011;33589;48.242;14.676;2023-06-14T08:40:21;5.30;;;3.30;;
47824;SDS011;33589;48.242;14.676;2023-06-14T08:42:51;6.90;;;3.08;;
47824;SDS011;33589;48.242;14.676;2023-06-14T08:45:18;7.13;;;3.35;;
47824;SDS011;33589;48.242;14.676;2023-06-14T08:47:46;4.80;;;2.90;;
47824;SDS011;33589;48.242;14.676;2023-06-14T08:50:16;4.47;;;3.20;;
47824;SDS011;33589;48.242;14.676;2023-06-14T08:52:47;6.03;;;3.20;;
47824;SDS011;33589;48.242;14.676;2023-06-14T08:55:17;10.48;;;3.33;;
47824;SDS011;33589;48.242;14.676;2023-06-14T08:57:45;4.30;;;2.90;;
47824;SDS011;33589;48.242;14.676;2023-06-14T09:00:12;5.38;;;3.05;;
47824;SDS011;33589;48.242;14.676;2023-06-14T09:02:39;6.35;;;3.30;;
47824;SDS011;33589;48.242;14.676;2023-06-14T09:05:11;3.95;;;3.40;;
47824;SDS011;33589;48.242;14.676;2023-06-14T09:07:43;4.28;;;2.90;;
47824;SDS011;33589;48.242;14.676;2023-06-14T09:10:15;4.70;;;3.30;;
47824;SDS011;33589;48.242;14.676;2023-06-14T09:12:41;3.70;;;3.10;;
47824;SDS011;33589;48.242;14.676;2023-06-14T09:15:07;5.97;;;3.30;;
47824;SDS011;33589;48.242;14.676;2023-06-14T09:17:37;6.05;;;3.60;;
47824;SDS011;33589;48.242;14.676;2023-06-14T09:20:04;4.07;;;3.30;;
47824;SDS011;33589;48.242;14.676;2023-06-14T09:22:36;4.75;;;3.47;;
47824;SDS011;33589;48.242;14.676;2023-06-14T09:25:03;10.43;;;3.80;;
47824;SDS011;33589;48.242;14.676;2023-06-14T09:27:30;4.88;;;3.20;;
47824;SDS011;33589;48.242;14.676;2023-06-14T09:29:56;6.13;;;3.40;;
47824;SDS011;33589;48.242;14.676;2023-06-14T09:32:22;5.90;;;3.38;;
47824;SDS011;33589;48.242;14.676;2023-06-14T09:34:48;4.65;;;3.25;;
47824;SDS011;33589;48.242;14.676;2023-06-14T09:37:26;7.60;;;3.38;;
47824;SDS011;33589;48.242;14.676;2023-06-14T09:39:53;5.22;;;3.60;;
47824;SDS011;33589;48.242;14.676;2023-06-14T09:42:19;5.03;;;3.10;;
47824;SDS011;33589;48.242;14.676;2023-06-14T09:44:48;4.18;;;3.22;;
47824;SDS011;33589;48.242;14.676;2023-06-14T09:47:15;5.03;;;3.20;;
47824;SDS011;33589;48.242;14.676;2023-06-14T09:49:41;5.88;;;3.53;;
47824;SDS011;33589;48.242;14.676;2023-06-14T09:52:08;5.05;;;3.42;;
47824;SDS011;33589;48.242;14.676;2023-06-14T09:54:42;4.40;;;3.13;;
47824;SDS011;33589;48.242;14.676;2023-06-14T09:57:12;4.40;;;2.83;;
47824;SDS011;33589;48.242;14.676;2023-06-14T09:59:40;4.28;;;2.90;;
47824;SDS011;33589;48.242;14.676;2023-06-14T10:02:10;7.47;;;3.50;;
47824;SDS011;33589;48.242;14.676;2023-06-14T10:07:40;4.13;;;2.88;;
47824;SDS011;33589;48.242;14.676;2023-06-14T10:10:12;4.03;;;3.63;;
47824;SDS011;33589;48.242;14.676;2023-06-14T10:12:38;5.15;;;3.00;;
47824;SDS011;33589;48.242;14.676;2023-06-14T10:15:04;20.42;;;4.10;;
47824;SDS011;33589;48.242;14.676;2023-06-14T10:17:42;3.40;;;3.10;;
47824;SDS011;33589;48.242;14.676;2023-06-14T10:23:06;6.93;;;3.15;;
47824;SDS011;33589;48.242;14.676;2023-06-14T10:25:38;7.20;;;3.50;;
47824;SDS011;33589;48.242;14.676;2023-06-14T10:28:19;3.55;;;3.15;;
47824;SDS011;33589;48.242;14.676;2023-06-14T10:31:11;6.18;;;3.40;;
47824;SDS011;33589;48.242;14.676;2023-06-14T10:33:49;4.03;;;3.25;;
47824;SDS011;33589;48.242;14.676;2023-06-14T10:36:24;5.13;;;3.30;;
47824;SDS011;33589;48.242;14.676;2023-06-14T10:38:59;6.35;;;3.28;;
47824;SDS011;33589;48.242;14.676;2023-06-14T10:41:29;5.40;;;3.22;;
47824;SDS011;33589;48.242;14.676;2023-06-14T10:46:39;7.05;;;3.63;;
47824;SDS011;33589;48.242;14.676;2023-06-14T10:49:05;5.03;;;3.50;;
47824;SDS011;33589;48.242;14.676;2023-06-14T10:51:38;4.05;;;3.28;;
47824;SDS011;33589;48.242;14.676;2023-06-14T10:54:13;3.50;;;3.20;;
47824;SDS011;33589;48.242;14.676;2023-06-14T10:56:49;7.68;;;3.40;;
47824;SDS011;33589;48.242;14.676;2023-06-14T10:59:17;3.55;;;2.90;;
47824;SDS011;33589;48.242;14.676;2023-06-14T11:12:49;5.50;;;3.33;;
47824;SDS011;33589;48.242;14.676;2023-06-14T11:15:17;6.28;;;3.47;;
47824;SDS011;33589;48.242;14.676;2023-06-14T11:17:49;5.45;;;3.60;;
47824;SDS011;33589;48.242;14.676;2023-06-14T11:20:18;4.82;;;3.60;;
47824;SDS011;33589;48.242;14.676;2023-06-14T11:22:44;4.38;;;3.38;;
47824;SDS011;33589;48.242;14.676;2023-06-14T11:25:11;8.05;;;3.30;;
47824;SDS011;33589;48.242;14.676;2023-06-14T11:27:37;4.88;;;3.70;;
47824;SDS011;33589;48.242;14.676;2023-06-14T11:30:03;3.95;;;3.55;;
47824;SDS011;33589;48.242;14.676;2023-06-14T11:32:31;4.60;;;3.30;;
47824;SDS011;33589;48.242;14.676;2023-06-14T11:34:57;5.72;;;3.53;;
47824;SDS011;33589;48.242;14.676;2023-06-14T11:37:25;5.80;;;3.40;;
47824;SDS011;33589;48.242;14.676;2023-06-14T11:39:56;5.25;;;3.33;;
47824;SDS011;33589;48.242;14.676;2023-06-14T11:42:22;4.57;;;3.33;;
47824;SDS011;33589;48.242;14.676;2023-06-14T11:44:51;6.15;;;3.92;;
47824;SDS011;33589;48.242;14.676;2023-06-14T11:47:18;4.38;;;3.58;;
47824;SDS011;33589;48.242;14.676;2023-06-14T11:49:43;8.20;;;3.30;;
47824;SDS011;33589;48.242;14.676;2023-06-14T11:52:09;6.78;;;3.78;;
47824;SDS011;33589;48.242;14.676;2023-06-14T11:54:36;4.95;;;3.15;;
47824;SDS011;33589;48.242;14.676;2023-06-14T11:57:02;6.35;;;3.65;;
47824;SDS011;33589;48.242;14.676;2023-06-14T11:59:29;5.88;;;3.65;;
47824;SDS011;33589;48.242;14.676;2023-06-14T12:01:56;3.55;;;3.10;;
47824;SDS011;33589;48.242;14.676;2023-06-14T12:04:26;5.20;;;3.55;;
47824;SDS011;33589;48.242;14.676;2023-06-14T12:06:52;3.78;;;3.20;;
47824;SDS011;33589;48.242;14.676;2023-06-14T12:09:18;4.43;;;3.25;;
47824;SDS011;33589;48.242;14.676;2023-06-14T12:11:44;7.97;;;4.38;;
47824;SDS011;33589;48.242;14.676;2023-06-14T12:14:10;7.93;;;5.07;;
47824;SDS011;33589;48.242;14.676;2023-06-14T12:16:37;5.32;;;3.85;;
47824;SDS011;33589;48.242;14.676;2023-06-14T12:19:15;7.65;;;3.70;;
47824;SDS011;33589;48.242;14.676;2023-06-14T12:21:41;6.82;;;3.45;;
47824;SDS011;33589;48.242;14.676;2023-06-14T12:24:09;5.10;;;3.60;;
47824;SDS011;33589;48.242;14.676;2023-06-14T12:26:40;5.32;;;3.45;;
47824;SDS011;33589;48.242;14.676;2023-06-14T12:29:07;4.18;;;3.72;;
47824;SDS011;33589;48.242;14.676;2023-06-14T12:31:32;4.78;;;3.88;;
47824;SDS011;33589;48.242;14.676;2023-06-14T12:33:58;4.45;;;3.30;;
47824;SDS011;33589;48.242;14.676;2023-06-14T12:36:24;4.63;;;3.55;;
47824;SDS011;33589;48.242;14.676;2023-06-14T12:38:50;5.60;;;3.90;;
47824;SDS011;33589;48.242;14.676;2023-06-14T12:41:19;4.00;;;3.70;;
47824;SDS011;33589;48.242;14.676;2023-06-14T12:43:46;5.80;;;3.60;;
47824;SDS011;33589;48.242;14.676;2023-06-14T12:46:12;8.25;;;3.70;;
47824;SDS011;33589;48.242;14.676;2023-06-14T12:48:37;5.45;;;3.63;;
47824;SDS011;33589;48.242;14.676;2023-06-14T12:51:03;4.95;;;3.33;;
47824;SDS011;33589;48.242;14.676;2023-06-14T12:53:29;4.45;;;3.40;;
47824;SDS011;33589;48.242;14.676;2023-06-14T12:55:54;6.43;;;3.90;;
47824;SDS011;33589;48.242;14.676;2023-06-14T12:58:20;4.45;;;3.50;;
47824;SDS011;33589;48.242;14.676;2023-06-14T13:00:46;5.35;;;3.50;;
47824;SDS011;33589;48.242;14.676;2023-06-14T13:03:12;5.35;;;3.80;;
47824;SDS011;33589;48.242;14.676;2023-06-14T13:05:38;8.45;;;3.50;;
47824;SDS011;33589;48.242;14.676;2023-06-14T13:08:06;6.80;;;3.70;;
47824;SDS011;33589;48.242;14.676;2023-06-14T13:10:33;7.75;;;4.43;;
47824;SDS011;33589;48.242;14.676;2023-06-14T13:12:59;5.25;;;3.83;;
47824;SDS011;33589;48.242;14.676;2023-06-14T13:15:25;5.63;;;3.75;;
47824;SDS011;33589;48.242;14.676;2023-06-14T13:17:52;4.20;;;3.53;;
47824;SDS011;33589;48.242;14.676;2023-06-14T13:20:18;5.18;;;4.00;;
47824;SDS011;33589;48.242;14.676;2023-06-14T13:22:43;9.55;;;3.65;;
47824;SDS011;33589;48.242;14.676;2023-06-14T13:25:09;7.28;;;3.65;;
47824;SDS011;33589;48.242;14.676;2023-06-14T13:27:35;6.95;;;4.18;;
47824;SDS011;33589;48.242;14.676;2023-06-14T13:30:01;5.63;;;4.20;;
47824;SDS011;33589;48.242;14.676;2023-06-14T13:32:27;5.55;;;3.83;;
47824;SDS011;33589;48.242;14.676;2023-06-14T13:34:53;4.63;;;3.63;;
47824;SDS011;33589;48.242;14.676;2023-06-14T13:37:19;6.95;;;4.25;;
47824;SDS011;33589;48.242;14.676;2023-06-14T13:39:44;5.80;;;4.20;;
47824;SDS011;33589;48.242;14.676;2023-06-14T13:42:10;4.30;;;3.67;;
47824;SDS011;33589;48.242;14.676;2023-06-14T13:44:36;4.28;;;3.60;;
47824;SDS011;33589;48.242;14.676;2023-06-14T13:47:02;5.43;;;4.13;;
47824;SDS011;33589;48.242;14.676;2023-06-14T13:49:28;6.50;;;4.07;;
47824;SDS011;33589;48.242;14.676;2023-06-14T13:51:53;5.80;;;3.88;;
47824;SDS011;33589;48.242;14.676;2023-06-14T13:54:19;5.15;;;3.72;;
47824;SDS011;33589;48.242;14.676;2023-06-14T13:56:46;7.15;;;3.60;;
47824;SDS011;33589;48.242;14.676;2023-06-14T13:59:12;6.60;;;3.80;;
47824;SDS011;33589;48.242;14.676;2023-06-14T14:01:37;11.02;;;4.07;;
47824;SDS011;33589;48.242;14.676;2023-06-14T14:04:04;4.57;;;3.90;;
47824;SDS011;33589;48.242;14.676;2023-06-14T14:06:30;6.72;;;3.47;;
47824;SDS011;33589;48.242;14.676;2023-06-14T14:08:56;6.15;;;3.72;;
47824;SDS011;33589;48.242;14.676;2023-06-14T14:11:22;5.18;;;4.05;;
47824;SDS011;33589;48.242;14.676;2023-06-14T14:13:48;7.03;;;3.90;;
47824;SDS011;33589;48.242;14.676;2023-06-14T14:16:14;7.03;;;4.00;;
47824;SDS011;33589;48.242;14.676;2023-06-14T14:18:40;4.07;;;3.67;;
47824;SDS011;33589;48.242;14.676;2023-06-14T14:21:06;4.45;;;3.80;;
47824;SDS011;33589;48.242;14.676;2023-06-14T14:23:32;4.32;;;3.85;;
47824;SDS011;33589;48.242;14.676;2023-06-14T14:25:58;5.68;;;3.60;;
47824;SDS011;33589;48.242;14.676;2023-06-14T14:28:26;5.93;;;3.80;;
47824;SDS011;33589;48.242;14.676;2023-06-14T14:30:51;7.18;;;3.55;;
47824;SDS011;33589;48.242;14.676;2023-06-14T14:33:18;7.95;;;3.90;;
47824;SDS011;33589;48.242;14.676;2023-06-14T14:35:44;6.05;;;4.00;;
47824;SDS011;33589;48.242;14.676;2023-06-14T14:38:14;6.80;;;3.55;;
47824;SDS011;33589;48.242;14.676;2023-06-14T14:40:43;6.35;;;3.75;;
47824;SDS011;33589;48.242;14.676;2023-06-14T14:43:09;3.45;;;3.13;;
47824;SDS011;33589;48.242;14.676;2023-06-14T14:45:35;10.18;;;4.13;;
47824;SDS011;33589;48.242;14.676;2023-06-14T14:48:01;4.28;;;3.70;;
47824;SDS011;33589;48.242;14.676;2023-06-14T14:50:28;4.57;;;4.05;;
47824;SDS011;33589;48.242;14.676;2023-06-14T14:52:54;5.55;;;3.60;;
47824;SDS011;33589;48.242;14.676;2023-06-14T14:55:20;7.05;;;4.50;;